createdAt,value
2023-11-18T00:02:05.197Z,4.00
2023-11-18T00:04:31.892Z,4.00
2023-11-18T00:07:00.537Z,3.90
2023-11-18T00:09:35.397Z,4.00
2023-11-18T00:12:02.324Z,4.00
2023-11-18T00:14:28.948Z,4.00
2023-11-18T00:16:55.762Z,4.00
2023-11-18T00:19:22.421Z,4.00
2023-11-18T00:21:49.210Z,4.10
2023-11-18T00:24:15.848Z,4.30
2023-11-18T00:26:42.500Z,4.20
2023-11-18T00:29:09.655Z,4.10
2023-11-18T00:31:36.475Z,4.10
2023-11-18T00:34:03.417Z,4.20
2023-11-18T00:36:30.379Z,4.30
2023-11-18T00:38:57.009Z,4.30
2023-11-18T00:41:24.003Z,4.30
2023-11-18T00:43:50.696Z,4.20
2023-11-18T00:46:18.056Z,3.80
2023-11-18T00:48:44.711Z,4.40
2023-11-18T00:51:11.330Z,4.40
2023-11-18T00:53:41.142Z,4.40
2023-11-18T00:56:10.905Z,4.40
2023-11-18T00:58:41.200Z,4.40
2023-11-18T01:01:08.076Z,4.30
2023-11-18T01:03:35.355Z,4.40
2023-11-18T01:06:02.144Z,4.40
2023-11-18T01:08:29.100Z,4.50
2023-11-18T01:10:55.812Z,4.50
2023-11-18T01:13:22.472Z,4.40
2023-11-18T01:15:50.625Z,4.50
2023-11-18T01:18:18.790Z,4.50
2023-11-18T01:20:45.953Z,4.50
2023-11-18T01:23:12.598Z,4.50
2023-11-18T01:25:41.148Z,4.50
2023-11-18T01:28:07.903Z,4.40
2023-11-18T01:30:34.538Z,4.30
2023-11-18T01:33:05.149Z,4.40
2023-11-18T01:35:32.433Z,4.40
2023-11-18T01:37:59.689Z,4.40
2023-11-18T01:40:27.225Z,4.40
2023-11-18T01:42:54.031Z,4.40
2023-11-18T01:45:22.688Z,4.40
2023-11-18T01:47:50.192Z,4.40
2023-11-18T01:50:18.788Z,4.00
2023-11-18T01:52:47.582Z,4.20
2023-11-18T01:55:14.817Z,4.30
2023-11-18T01:57:44.779Z,4.40
2023-11-18T02:00:13.978Z,4.30
2023-11-18T02:02:41.029Z,4.30
2023-11-18T02:05:08.670Z,4.50
2023-11-18T02:07:38.160Z,4.40
2023-11-18T02:10:09.891Z,5.70
2023-11-18T02:12:43.118Z,4.50
2023-11-18T02:15:13.759Z,4.50
2023-11-18T02:17:43.540Z,4.50
2023-11-18T02:20:16.865Z,4.50
2023-11-18T02:22:49.909Z,4.50
2023-11-18T02:25:17.905Z,4.40
2023-11-18T02:27:46.217Z,4.50
2023-11-18T02:30:17.699Z,4.50
2023-11-18T02:33:06.715Z,4.50
2023-11-18T02:35:49.412Z,4.50
2023-11-18T02:38:22.971Z,4.50
2023-11-18T02:40:53.099Z,4.40
2023-11-18T02:43:20.525Z,4.40
2023-11-18T02:45:55.813Z,4.40
2023-11-18T02:48:22.671Z,4.50
2023-11-18T02:50:49.303Z,4.50
2023-11-18T02:53:16.120Z,4.50
2023-11-18T02:55:42.922Z,4.40
2023-11-18T02:58:09.608Z,4.50
2023-11-18T03:00:36.396Z,4.40
2023-11-18T03:03:04.147Z,4.30
2023-11-18T03:05:31.572Z,4.30
2023-11-18T03:07:59.156Z,4.30
2023-11-18T03:10:25.897Z,4.30
2023-11-18T03:12:54.188Z,4.30
2023-11-18T03:15:22.598Z,4.40
2023-11-18T03:17:51.060Z,4.40
2023-11-18T03:20:19.067Z,4.40
2023-11-18T03:22:47.235Z,4.40
2023-11-18T03:25:14.816Z,4.40
2023-11-18T03:27:41.858Z,4.40
2023-11-18T03:30:09.655Z,4.50
2023-11-18T03:32:37.379Z,4.50
2023-11-18T03:35:11.345Z,4.60
2023-11-18T03:37:45.048Z,4.70
2023-11-18T03:40:14.432Z,4.60
2023-11-18T03:42:42.503Z,4.50
2023-11-18T03:45:10.406Z,4.50
2023-11-18T03:47:37.444Z,4.50
2023-11-18T03:50:04.345Z,4.40
2023-11-18T03:52:31.043Z,4.40
2023-11-18T03:54:57.705Z,4.10
2023-11-18T03:57:24.431Z,4.40
2023-11-18T03:59:51.593Z,4.40
2023-11-18T04:02:19.340Z,4.40
2023-11-18T04:04:46.038Z,4.40
2023-11-18T04:07:12.693Z,4.30
2023-11-18T04:09:42.149Z,4.40
2023-11-18T04:12:09.165Z,4.40
2023-11-18T04:14:35.811Z,4.40
2023-11-18T04:17:02.531Z,4.50
2023-11-18T04:19:31.346Z,4.50
2023-11-18T04:21:57.999Z,4.50
2023-11-18T04:24:24.853Z,4.50
2023-11-18T04:26:51.585Z,4.30
2023-11-18T04:29:19.129Z,4.50
2023-11-18T04:31:45.843Z,4.50
2023-11-18T04:34:12.567Z,4.50
2023-11-18T04:36:39.258Z,4.50
2023-11-18T04:39:06.009Z,4.50
2023-11-18T04:41:32.811Z,4.40
2023-11-18T04:43:59.738Z,4.50
2023-11-18T04:46:26.946Z,4.50
2023-11-18T04:48:55.871Z,4.50
2023-11-18T04:51:23.526Z,4.60
2023-11-18T04:53:50.227Z,4.50
2023-11-18T04:56:23.195Z,4.50
2023-11-18T04:58:49.895Z,4.50
2023-11-18T05:01:16.733Z,4.50
2023-11-18T05:03:43.528Z,4.50
2023-11-18T05:06:10.310Z,4.50
2023-11-18T05:08:37.537Z,4.50
2023-11-18T05:11:05.931Z,4.50
2023-11-18T05:13:34.778Z,4.50
2023-11-18T05:16:01.602Z,4.60
2023-11-18T05:18:30.912Z,4.60
2023-11-18T05:20:58.382Z,4.60
2023-11-18T05:23:25.287Z,4.60
2023-11-18T05:25:52.232Z,4.60
2023-11-18T05:28:19.108Z,4.50
2023-11-18T05:30:45.929Z,4.50
2023-11-18T05:33:18.357Z,4.50
2023-11-18T05:35:50.494Z,4.50
2023-11-18T05:38:19.738Z,4.50
2023-11-18T05:41:00.424Z,4.50
2023-11-18T05:43:37.757Z,4.50
2023-11-18T05:46:15.842Z,4.40
2023-11-18T05:48:44.555Z,4.50
2023-11-18T05:51:12.165Z,4.50
2023-11-18T05:53:45.125Z,4.50
2023-11-18T05:56:12.120Z,4.50
2023-11-18T05:58:42.466Z,4.50
2023-11-18T06:01:09.187Z,4.50
2023-11-18T06:03:39.645Z,4.50
2023-11-18T06:06:08.743Z,4.50
2023-11-18T06:08:36.512Z,4.50
2023-11-18T06:11:13.776Z,4.50
2023-11-18T06:13:43.298Z,4.50
2023-11-18T06:16:22.358Z,4.50
2023-11-18T06:18:54.337Z,4.50
2023-11-18T06:21:25.521Z,4.60
2023-11-18T06:23:52.684Z,4.60
2023-11-18T06:26:19.472Z,4.60
2023-11-18T06:28:46.708Z,4.70
2023-11-18T06:31:14.906Z,4.70
2023-11-18T06:33:46.633Z,4.60
2023-11-18T06:36:19.423Z,4.60
2023-11-18T06:38:54.960Z,4.60
2023-11-18T06:41:34.556Z,4.60
2023-11-18T06:44:04.250Z,4.60
2023-11-18T06:46:35.338Z,4.70
2023-11-18T06:49:12.098Z,4.70
2023-11-18T06:51:39.548Z,4.70
2023-11-18T06:54:10.596Z,4.70
2023-11-18T06:56:39.072Z,4.70
2023-11-18T06:59:11.276Z,4.80
2023-11-18T07:01:41.808Z,4.80
2023-11-18T07:04:11.278Z,4.80
2023-11-18T07:06:42.290Z,4.80
2023-11-18T07:09:14.562Z,4.80
2023-11-18T07:11:44.753Z,4.80
2023-11-18T07:14:12.540Z,5.20
2023-11-18T07:16:40.954Z,4.80
2023-11-18T07:19:08.354Z,4.90
2023-11-18T07:21:35.666Z,5.30
2023-11-18T07:24:03.631Z,4.90
2023-11-18T07:26:40.604Z,4.90
2023-11-18T07:29:10.025Z,4.90
2023-11-18T07:31:37.262Z,4.90
2023-11-18T07:34:06.538Z,4.80
2023-11-18T07:36:34.152Z,4.80
2023-11-18T07:39:04.608Z,5.10
2023-11-18T07:41:34.743Z,4.90
2023-11-18T07:44:02.376Z,4.90
2023-11-18T07:46:31.568Z,4.90
2023-11-18T07:48:58.868Z,5.00
2023-11-18T07:51:26.282Z,5.00
2023-11-18T07:53:54.329Z,5.00
2023-11-18T07:56:23.729Z,4.90
2023-11-18T07:58:51.814Z,5.00
2023-11-18T08:01:19.259Z,5.00
2023-11-18T08:03:46.349Z,5.10
2023-11-18T08:06:13.801Z,5.00
2023-11-18T08:08:41.859Z,5.10
2023-11-18T08:11:11.636Z,5.10
2023-11-18T08:13:38.344Z,5.00
2023-11-18T08:16:05.656Z,5.00
2023-11-18T08:18:32.524Z,4.90
2023-11-18T08:21:01.344Z,4.90
2023-11-18T08:23:29.297Z,4.90
2023-11-18T08:25:56.531Z,4.80
2023-11-18T08:28:23.421Z,4.80
2023-11-18T08:30:52.407Z,4.80
2023-11-18T08:33:20.357Z,5.10
2023-11-18T08:35:47.325Z,4.80
2023-11-18T08:38:14.152Z,4.80
2023-11-18T08:40:41.126Z,4.80
2023-11-18T08:43:09.270Z,4.90
2023-11-18T08:45:38.433Z,4.90
2023-11-18T08:48:09.486Z,4.90
2023-11-18T08:50:38.102Z,5.00
2023-11-18T08:53:06.717Z,5.00
2023-11-18T08:55:41.008Z,5.10
2023-11-18T08:58:29.555Z,5.20
2023-11-18T09:01:14.925Z,5.30
2023-11-18T09:03:53.225Z,5.40
2023-11-18T09:06:26.398Z,5.50
2023-11-18T09:08:58.746Z,5.60
2023-11-18T09:11:30.425Z,5.60
2023-11-18T09:14:01.657Z,5.60
2023-11-18T09:16:34.077Z,5.50
2023-11-18T09:19:03.342Z,5.50
2023-11-18T09:21:31.130Z,5.40
2023-11-18T09:23:58.262Z,5.40
2023-11-18T09:26:27.454Z,5.40
2023-11-18T09:28:54.509Z,5.50
2023-11-18T09:31:22.685Z,5.50
2023-11-18T09:33:58.547Z,5.50
2023-11-18T09:36:29.733Z,5.60
2023-11-18T09:38:56.530Z,5.70
2023-11-18T09:41:26.457Z,5.80
2023-11-18T09:43:55.759Z,5.70
2023-11-18T09:46:29.946Z,5.70
2023-11-18T09:49:34.608Z,5.70
2023-11-18T09:52:06.157Z,5.70
2023-11-18T09:54:59.755Z,5.70
2023-11-18T09:57:46.134Z,5.70
2023-11-18T10:00:27.187Z,5.60
2023-11-18T10:02:56.736Z,5.60
2023-11-18T10:05:27.916Z,5.50
2023-11-18T10:07:55.180Z,5.40
2023-11-18T10:10:23.151Z,5.40
2023-11-18T10:12:54.289Z,5.40
2023-11-18T10:15:25.972Z,5.40
2023-11-18T10:18:09.828Z,5.40
2023-11-18T10:20:47.777Z,5.40
2023-11-18T10:23:20.870Z,5.40
2023-11-18T10:25:51.731Z,5.40
2023-11-18T10:28:24.739Z,5.40
2023-11-18T10:30:51.960Z,5.40
2023-11-18T10:33:19.305Z,5.50
2023-11-18T10:35:53.378Z,5.50
2023-11-18T10:38:20.515Z,5.50
2023-11-18T10:40:48.034Z,5.50
2023-11-18T10:43:18.039Z,5.60
2023-11-18T10:45:47.914Z,5.70
2023-11-18T10:48:17.472Z,5.70
2023-11-18T10:50:51.013Z,5.70
2023-11-18T10:53:19.987Z,5.80
2023-11-18T10:55:51.893Z,5.80
2023-11-18T10:58:18.992Z,5.80
2023-11-18T11:00:50.366Z,5.90
2023-11-18T11:03:17.386Z,6.00
2023-11-18T11:05:44.999Z,6.00
2023-11-18T11:08:24.707Z,6.00
2023-11-18T11:10:59.820Z,5.90
2023-11-18T11:13:28.343Z,5.90
2023-11-18T11:15:57.945Z,6.00
2023-11-18T11:18:35.898Z,6.00
2023-11-18T11:21:20.748Z,6.10
2023-11-18T11:23:56.305Z,6.10
2023-11-18T11:27:04.066Z,6.10
2023-11-18T11:29:42.171Z,6.00
2023-11-18T11:32:31.636Z,6.00
2023-11-18T11:35:17.978Z,6.10
2023-11-18T11:37:45.899Z,6.10
2023-11-18T11:40:22.629Z,6.10
2023-11-18T11:42:56.123Z,6.10
2023-11-18T11:45:29.283Z,6.20
2023-11-18T11:48:21.026Z,6.20
2023-11-18T11:50:55.160Z,6.30
2023-11-18T11:53:26.905Z,6.30
2023-11-18T11:58:32.401Z,6.30
2023-11-18T12:01:08.946Z,6.30
2023-11-18T12:03:46.361Z,6.30
2023-11-18T12:06:17.213Z,6.40
2023-11-18T12:08:45.319Z,6.40
2023-11-18T12:11:13.848Z,6.40
2023-11-18T12:13:41.019Z,6.30
2023-11-18T12:16:11.262Z,6.40
2023-11-18T12:18:38.279Z,5.70
2023-11-18T12:21:05.786Z,6.50
2023-11-18T12:23:35.497Z,6.50
2023-11-18T12:26:04.219Z,6.30
2023-11-18T12:28:36.084Z,6.60
2023-11-18T12:31:14.263Z,6.60
2023-11-18T12:33:56.232Z,6.60
2023-11-18T12:36:33.948Z,6.60
2023-11-18T12:39:32.974Z,6.70
2023-11-18T12:42:16.050Z,6.70
2023-11-18T12:45:15.372Z,6.70
2023-11-18T12:47:45.993Z,6.70
2023-11-18T12:50:25.477Z,6.70
2023-11-18T12:52:53.703Z,6.70
2023-11-18T12:55:22.230Z,6.70
2023-11-18T12:57:49.441Z,6.70
2023-11-18T13:00:35.262Z,6.70
2023-11-18T13:03:02.386Z,6.70
2023-11-18T13:05:31.019Z,6.70
2023-11-18T13:08:02.801Z,6.70
2023-11-18T13:10:29.877Z,6.70
2023-11-18T13:12:58.971Z,6.70
2023-11-18T13:15:26.341Z,6.70
2023-11-18T13:18:10.810Z,6.70
2023-11-18T13:20:38.420Z,6.70
2023-11-18T13:23:09.778Z,6.70
2023-11-18T13:25:37.895Z,6.70
2023-11-18T13:28:06.370Z,6.70
2023-11-18T13:30:36.959Z,6.70
2023-11-18T13:33:05.091Z,6.70
2023-11-18T13:35:31.953Z,6.70
2023-11-18T13:37:59.557Z,6.70
2023-11-18T13:40:26.349Z,6.60
2023-11-18T13:43:09.539Z,6.60
2023-11-18T13:45:38.772Z,6.60
2023-11-18T13:48:06.607Z,6.60
2023-11-18T13:50:36.796Z,6.70
2023-11-18T13:53:04.390Z,6.70
2023-11-18T13:55:33.051Z,6.70
2023-11-18T13:58:00.332Z,6.70
2023-11-18T14:00:31.358Z,6.70
2023-11-18T14:03:00.594Z,6.70
2023-11-18T14:05:27.621Z,6.70
2023-11-18T14:08:00.567Z,6.80
2023-11-18T14:10:27.459Z,6.70
2023-11-18T14:13:18.089Z,6.70
2023-11-18T14:15:46.318Z,6.70
2023-11-18T14:18:16.262Z,6.80
2023-11-18T14:20:43.140Z,6.80
2023-11-18T14:23:10.077Z,6.70
2023-11-18T14:25:37.279Z,6.70
2023-11-18T14:28:04.301Z,6.70
2023-11-18T14:30:31.340Z,6.70
2023-11-18T14:32:58.206Z,6.70
2023-11-18T14:35:26.810Z,6.70
2023-11-18T14:37:55.224Z,6.70
2023-11-18T14:40:24.988Z,6.70
2023-11-18T14:42:53.264Z,6.70
2023-11-18T14:45:20.092Z,6.70
2023-11-18T14:47:48.643Z,6.70
2023-11-18T14:50:19.908Z,6.70
2023-11-18T14:52:46.910Z,6.70
2023-11-18T14:55:13.856Z,6.70
2023-11-18T14:57:49.634Z,6.50
2023-11-18T15:00:29.057Z,6.70
2023-11-18T15:02:58.257Z,6.60
2023-11-18T15:05:28.282Z,6.60
2023-11-18T15:07:56.196Z,6.60
2023-11-18T15:10:27.579Z,6.60
2023-11-18T15:12:59.765Z,6.60
2023-11-18T15:15:36.590Z,6.60
2023-11-18T15:18:10.102Z,6.60
2023-11-18T15:20:37.416Z,6.60
2023-11-18T15:23:05.587Z,6.60
2023-11-18T15:25:32.431Z,6.60
2023-11-18T15:27:59.774Z,6.50
2023-11-18T15:30:38.022Z,6.60
2023-11-18T15:33:05.515Z,6.60
2023-11-18T15:35:32.269Z,6.60
2023-11-18T15:37:58.962Z,6.60
2023-11-18T15:40:26.851Z,6.60
2023-11-18T15:42:53.938Z,6.60
2023-11-18T15:45:22.329Z,6.60
2023-11-18T15:47:49.956Z,6.60
2023-11-18T15:50:17.726Z,6.60
2023-11-18T15:53:03.012Z,6.50
2023-11-18T15:55:29.807Z,6.50
2023-11-18T15:57:56.462Z,6.50
2023-11-18T16:00:27.626Z,6.50
2023-11-18T16:03:02.952Z,6.50
2023-11-18T16:05:35.318Z,6.50
2023-11-18T16:08:03.474Z,6.50
2023-11-18T16:10:31.382Z,6.50
2023-11-18T16:12:59.606Z,6.50
2023-11-18T16:15:28.368Z,6.50
2023-11-18T16:17:58.075Z,6.50
2023-11-18T16:20:27.336Z,6.50
2023-11-18T16:22:55.505Z,6.50
2023-11-18T16:25:31.049Z,6.50
2023-11-18T16:28:05.129Z,6.50
2023-11-18T16:30:33.406Z,6.50
2023-11-18T16:33:05.216Z,6.50
2023-11-18T16:35:32.440Z,6.50
2023-11-18T16:38:01.466Z,6.50
2023-11-18T16:40:28.896Z,6.50
2023-11-18T16:42:56.756Z,6.40
2023-11-18T16:45:25.294Z,6.50
2023-11-18T16:47:53.730Z,6.50
2023-11-18T16:50:23.470Z,6.50
2023-11-18T16:52:51.377Z,6.50
2023-11-18T16:55:18.344Z,6.50
2023-11-18T16:57:46.813Z,6.50
2023-11-18T17:00:18.018Z,6.50
2023-11-18T17:02:50.777Z,6.50
2023-11-18T17:05:17.830Z,6.50
2023-11-18T17:07:45.464Z,6.50
2023-11-18T17:10:15.444Z,6.50
2023-11-18T17:12:43.494Z,6.50
2023-11-18T17:15:15.118Z,6.50
2023-11-18T17:17:49.308Z,6.50
2023-11-18T17:20:17.557Z,6.50
2023-11-18T17:22:45.028Z,6.50
2023-11-18T17:25:16.296Z,6.50
2023-11-18T17:27:48.324Z,6.50
2023-11-18T17:30:19.024Z,6.60
2023-11-18T17:32:48.108Z,6.60
2023-11-18T17:35:16.837Z,6.70
2023-11-18T17:37:45.126Z,6.60
2023-11-18T17:40:12.773Z,6.60
2023-11-18T17:42:42.924Z,6.60
2023-11-18T17:45:10.863Z,6.70
2023-11-18T17:47:38.740Z,6.60
2023-11-18T17:50:09.966Z,6.60
2023-11-18T17:52:37.012Z,6.60
2023-11-18T17:55:04.943Z,6.70
2023-11-18T17:57:31.741Z,6.70
2023-11-18T17:59:58.772Z,6.70
2023-11-18T18:02:25.739Z,6.70
2023-11-18T18:04:52.546Z,6.70
2023-11-18T18:07:19.296Z,6.70
2023-11-18T18:09:47.058Z,7.20
2023-11-18T18:12:14.253Z,6.70
2023-11-18T18:14:41.188Z,6.70
2023-11-18T18:17:08.068Z,6.70
2023-11-18T18:19:34.903Z,6.70
2023-11-18T18:22:01.568Z,6.80
2023-11-18T18:24:28.234Z,6.80
2023-11-18T18:29:25.758Z,6.80
2023-11-18T18:31:52.407Z,6.80
2023-11-18T18:34:19.087Z,6.80
2023-11-18T18:36:45.875Z,6.80
2023-11-18T18:39:13.647Z,6.80
2023-11-18T18:41:40.369Z,6.80
2023-11-18T18:44:07.403Z,6.80
2023-11-18T18:46:34.088Z,6.80
2023-11-18T18:49:00.823Z,6.90
2023-11-18T18:51:27.519Z,6.90
2023-11-18T18:53:54.188Z,6.90
2023-11-18T18:56:22.027Z,6.90
2023-11-18T18:58:49.899Z,6.90
2023-11-18T19:01:16.617Z,6.90
2023-11-18T19:03:43.420Z,6.90
2023-11-18T19:06:12.759Z,7.00
2023-11-18T19:08:39.456Z,6.90
2023-11-18T19:11:07.140Z,7.00
2023-11-18T19:13:33.888Z,7.00
2023-11-18T19:16:00.711Z,7.00
2023-11-18T19:18:27.571Z,7.00
2023-11-18T19:20:54.326Z,7.00
2023-11-18T19:23:28.086Z,7.00
2023-11-18T19:25:54.751Z,7.00
2023-11-18T19:28:22.344Z,7.10
2023-11-18T19:30:49.083Z,7.10
2023-11-18T19:33:15.744Z,7.10
2023-11-18T19:35:42.437Z,7.10
2023-11-18T19:38:10.637Z,7.10
2023-11-18T19:40:37.339Z,7.10
2023-11-18T19:43:04.014Z,7.10
2023-11-18T19:45:30.958Z,7.20
2023-11-18T19:47:58.249Z,7.50
2023-11-18T19:50:33.195Z,7.20
2023-11-18T19:52:59.931Z,7.30
2023-11-18T19:55:26.595Z,7.20
2023-11-18T19:57:53.283Z,7.30
2023-11-18T20:00:31.402Z,7.30
2023-11-18T20:02:58.340Z,7.30
2023-11-18T20:05:26.767Z,7.30
2023-11-18T20:07:55.245Z,7.40
2023-11-18T20:10:22.463Z,7.40
2023-11-18T20:12:56.287Z,7.40
2023-11-18T20:15:28.474Z,7.40
2023-11-18T20:18:13.557Z,7.40
2023-11-18T20:20:40.407Z,7.50
2023-11-18T20:23:15.306Z,7.40
2023-11-18T20:25:42.069Z,7.50
2023-11-18T20:28:09.169Z,7.50
2023-11-18T20:30:35.793Z,7.60
2023-11-18T20:33:02.495Z,7.50
2023-11-18T20:35:29.192Z,7.60
2023-11-18T20:37:55.920Z,7.60
2023-11-18T20:40:22.868Z,7.60
2023-11-18T20:42:51.158Z,7.60
2023-11-18T20:45:19.688Z,7.60
2023-11-18T20:47:47.995Z,7.60
2023-11-18T20:50:15.627Z,7.60
2023-11-18T20:52:43.229Z,7.60
2023-11-18T20:55:10.757Z,7.60
2023-11-18T20:57:38.099Z,7.60
2023-11-18T21:00:09.306Z,7.60
2023-11-18T21:02:36.880Z,7.60
2023-11-18T21:05:09.139Z,7.70
2023-11-18T21:07:36.084Z,7.70
2023-11-18T21:10:05.618Z,7.70
2023-11-18T21:12:33.355Z,7.70
2023-11-18T21:15:02.786Z,7.70
2023-11-18T21:17:30.262Z,7.70
2023-11-18T21:19:57.272Z,7.60
2023-11-18T21:22:24.344Z,7.80
2023-11-18T21:24:51.659Z,7.80
2023-11-18T21:27:18.435Z,7.80
2023-11-18T21:29:45.180Z,7.80
2023-11-18T21:32:12.261Z,7.80
2023-11-18T21:34:41.594Z,7.90
2023-11-18T21:37:11.283Z,7.80
2023-11-18T21:39:39.945Z,7.90
2023-11-18T21:42:08.679Z,7.90
2023-11-18T21:44:38.656Z,7.70
2023-11-18T21:47:05.611Z,7.90
2023-11-18T21:49:32.948Z,7.90
2023-11-18T21:51:59.757Z,8.00
2023-11-18T21:54:27.163Z,8.00
2023-11-18T21:56:53.816Z,8.50
2023-11-18T21:59:20.538Z,8.00
2023-11-18T22:01:47.306Z,8.00
2023-11-18T22:04:14.044Z,8.00
2023-11-18T22:06:40.838Z,8.00
2023-11-18T22:09:08.379Z,8.00
2023-11-18T22:11:37.749Z,8.00
2023-11-18T22:14:04.731Z,8.00
2023-11-18T22:16:31.495Z,8.00
2023-11-18T22:18:58.860Z,8.10
2023-11-18T22:21:26.730Z,8.20
2023-11-18T22:23:53.632Z,8.10
2023-11-18T22:26:23.118Z,8.10
2023-11-18T22:31:21.458Z,8.10
2023-11-18T22:33:48.372Z,8.10
2023-11-18T22:36:15.567Z,8.20
2023-11-18T22:38:43.613Z,8.10
2023-11-18T22:41:13.004Z,8.20
2023-11-18T22:43:40.759Z,8.20
2023-11-18T22:46:11.794Z,8.20
2023-11-18T22:48:38.874Z,8.20
2023-11-18T22:51:06.789Z,8.20
2023-11-18T22:53:33.554Z,8.20
2023-11-18T22:56:00.207Z,8.20
2023-11-18T22:58:26.902Z,8.20
2023-11-18T23:00:56.220Z,8.20
2023-11-18T23:03:23.523Z,8.30
2023-11-18T23:05:53.794Z,8.30
2023-11-18T23:08:22.666Z,8.30
2023-11-18T23:10:49.801Z,8.30
2023-11-18T23:13:18.183Z,8.30
2023-11-18T23:15:47.224Z,8.30
2023-11-18T23:18:14.056Z,8.40
2023-11-18T23:20:41.432Z,8.40
2023-11-18T23:23:08.334Z,8.40
2023-11-18T23:25:35.267Z,8.40
2023-11-18T23:28:03.498Z,8.40
2023-11-18T23:30:32.558Z,8.40
2023-11-18T23:32:59.640Z,8.40
2023-11-18T23:35:26.489Z,8.50
2023-11-18T23:37:53.367Z,8.50
2023-11-18T23:40:21.112Z,8.50
2023-11-18T23:42:49.034Z,8.50
2023-11-18T23:45:16.061Z,8.60
2023-11-18T23:47:46.723Z,8.50
2023-11-18T23:50:13.456Z,8.60
2023-11-18T23:52:40.196Z,8.60
2023-11-18T23:55:13.569Z,8.60
2023-11-18T23:57:41.775Z,8.60
